Latest Weather Observations for Bankstown

IDN60801

Issued at 1:35 am EDT Sunday 11 December 2016 (issued every 30 minutes, with the page automatically refreshed every 10 minutes)

About weather observations | Map of weather stations | Latest weather observations for NSW | Other Formats
Station Details ID: 066137 Name: BANKSTOWN AIRPORT AWS Lat: -33.92 Lon: 150.99 Height: 6.5 m
Data from the previous 72 hours. | See also: Recent months at Bankstown
Date/Time
EDT
Temp
°C
App
Temp
°C
Dew
Point
°C
Rel
Hum
%
Delta-T
°C
Wind Press
QNH
hPa
Press
MSL
hPa
Rain since
9am
mm
Dir  Spd
km/h
Gust
km/h
Spd
kts
Gust
kts
11/01:30am 20.4 19.7 14.3 68 3.5 NE 11 17 6 9 1020.9 1020.9 0.0
11/01:00am 20.5 19.4 14.2 67 3.6 NE 13 19 7 10 1021.2 1021.2 0.0
11/12:30am 20.6 19.4 14.0 66 3.8 NE 13 19 7 10 1021.5 1021.5 0.0
11/12:00am 20.6 19.8 14.0 66 3.8 NE 11 20 6 11 1021.7 1021.7 0.0
 
Date/Time
EDT
Temp
°C
App
Temp
°C
Dew
Point
°C
Rel
Hum
%
Delta-T
°C
Wind Press
QNH
hPa
Press
MSL
hPa
Rain since
9am
mm
Dir  Spd
km/h
Gust
km/h
Spd
kts
Gust
kts
10/11:30pm 20.6 20.2 14.0 66 3.8 NE 9 17 5 9 1021.9 1021.9 0.0
10/11:00pm 20.5 19.2 13.7 65 3.9 NE 13 17 7 9 1021.9 1021.9 0.0
10/10:30pm 20.4 19.1 13.6 65 3.9 NE 13 19 7 10 1022.0 1022.0 0.0
10/10:00pm 20.4 19.4 13.4 64 4.0 NE 11 17 6 9 1021.9 1021.9 0.0
10/09:30pm 20.4 18.6 13.4 64 4.0 NE 15 22 8 12 1021.7 1021.7 0.0
10/09:00pm 20.7 18.5 13.4 63 4.2 NE 17 28 9 15 1021.5 1021.5 0.0
10/08:30pm 20.6 18.0 13.1 62 4.3 NE 19 30 10 16 1021.1 1021.1 0.0
10/08:00pm 20.9 18.4 13.4 62 4.3 NE 19 24 10 13 1020.6 1020.6 0.0
10/07:30pm 21.2 18.7 13.4 61 4.5 ENE 19 28 10 15 1020.1 1020.1 0.0
10/07:00pm 21.4 18.8 13.3 60 4.6 ENE 19 28 10 15 1019.7 1019.7 0.0
10/06:30pm 21.8 18.2 13.2 58 4.9 ENE 24 32 13 17 1019.3 1019.3 0.0
10/06:00pm 22.2 18.6 13.0 56 5.3 E 24 32 13 17 1018.9 1018.9 0.0
10/05:30pm 22.2 18.2 13.0 56 5.3 ENE 26 37 14 20 1018.9 1018.9 0.0
10/05:00pm 22.8 18.8 13.0 54 5.6 E 26 39 14 21 1018.9 1018.9 0.0
10/04:30pm 23.1 19.0 12.7 52 6.0 ENE 26 33 14 18 1019.0 1019.0 0.0
10/04:00pm 23.7 20.5 13.0 51 6.2 ENE 22 33 12 18 1019.3 1019.3 0.0
10/03:30pm 23.6 20.0 13.2 52 6.0 ENE 24 37 13 20 1019.5 1019.5 0.0
10/03:00pm 23.9 20.7 13.2 51 6.2 ENE 22 33 12 18 1019.9 1019.9 0.0
10/02:30pm 24.2 21.6 13.1 50 6.4 ENE 19 33 10 18 1020.1 1020.1 0.0
10/02:00pm 23.4 20.2 13.0 52 6.0 E 22 35 12 19 1020.5 1020.5 0.0
10/01:30pm 23.0 19.8 12.0 50 6.2 ENE 20 32 11 17 1020.8 1020.8 0.0
10/01:00pm 23.0 20.3 11.7 49 6.3 E 17 26 9 14 1021.1 1021.1 0.0
10/12:30pm 22.6 19.6 12.0 51 6.0 E 19 33 10 18 1021.4 1021.4 0.0
10/12:00pm 22.3 19.6 11.7 51 5.9 E 17 24 9 13 1021.5 1021.5 0.0
10/11:30am 22.8 21.0 12.1 51 6.1 ENE 13 19 7 10 1022.0 1022.0 0.0
10/11:00am 21.7 21.0 12.0 54 5.4 E 7 11 4 6 1022.2 1022.2 0.0
10/10:30am 21.5 20.6 11.5 53 5.6 W 7 11 4 6 1022.4 1022.4 0.0
10/10:00am 20.8 20.1 11.4 55 5.2 SSE 6 9 3 5 1022.4 1022.4 0.0
10/09:30am 20.5 20.4 12.0 58 4.7 ENE 4 9 2 5 1022.6 1022.6 0.0
10/09:00am 20.8 19.2 11.7 56 5.0 E 11 17 6 9 1022.6 1022.6 0.0
10/08:30am 20.3 19.7 12.3 60 4.5 SE 7 13 4 7 1022.4 1022.4 0.0
10/08:00am 18.3 18.4 11.6 65 3.7 ESE 2 7 1 4 1022.5 1022.5 0.0
10/07:30am 17.6 18.3 12.1 70 3.0 CALM 0 6 0 3 1022.3 1022.3 0.0
10/07:00am 15.6 15.4 11.8 78 2.0 SSW 4 9 2 5 1021.8 1021.8 0.0
10/06:30am 14.8 14.8 11.2 79 1.9 SSW 2 7 1 4 1021.4 1021.4 0.0
10/06:00am 13.8 14.1 10.8 82 1.6 CALM 0 0 0 0 1021.0 1021.0 0.0
10/05:30am 13.5 13.8 10.9 84 1.4 CALM 0 0 0 0 1020.6 1020.6 0.0
10/05:00am 13.5 13.3 10.5 82 1.6 SSW 2 6 1 3 1020.2 1020.2 0.0
10/04:30am 14.4 13.4 10.4 77 2.1 SSW 6 9 3 5 1019.9 1019.9 0.0
10/04:00am 14.9 15.1 10.5 75 2.3 CALM 0 0 0 0 1019.8 1019.8 0.0
10/03:30am 15.2 14.7 10.8 75 2.3 SW 4 6 2 3 1019.6 1019.6 0.0
10/03:00am 15.2 14.1 10.8 75 2.3 SSW 7 9 4 5 1019.4 1019.4 0.0
10/02:30am 16.0 16.0 11.0 72 2.7 S 2 9 1 5 1019.3 1019.3 0.0
10/02:00am 16.0 16.0 11.0 72 2.7 S 2 6 1 3 1019.4 1019.4 0.0
10/01:30am 16.3 16.5 10.6 69 3.0 CALM 0 4 0 2 1019.2 1019.2 0.0
10/01:00am 16.7 15.8 10.8 68 3.1 S 6 6 3 3 1019.3 1019.3 0.0
10/12:30am 17.0 16.2 11.1 68 3.2 S 6 7 3 4 1019.4 1019.4 0.0
10/12:00am 16.6 14.9 11.3 71 2.9 SSW 11 13 6 7 1019.3 1019.3 0.0
 
Date/Time
EDT
Temp
°C
App
Temp
°C
Dew
Point
°C
Rel
Hum
%
Delta-T
°C
Wind Press
QNH
hPa
Press
MSL
hPa
Rain since
9am
mm
Dir  Spd
km/h
Gust
km/h
Spd
kts
Gust
kts
09/11:30pm 16.9 15.2 11.2 69 3.1 SSW 11 11 6 6 1019.1 1019.1 0.0
09/11:00pm 17.4 16.0 11.0 66 3.4 SSW 9 13 5 7 1018.9 1018.9 0.0
09/10:30pm 18.8 15.9 10.9 60 4.3 SE 17 22 9 12 1018.5 1018.5 0.0
09/10:00pm 18.8 15.4 10.6 59 4.4 SE 19 26 10 14 1018.2 1018.2 0.0
09/09:30pm 19.1 16.5 10.6 58 4.6 SE 15 20 8 11 1017.7 1017.7 0.0
09/09:00pm 19.5 16.5 10.5 56 4.9 SE 17 22 9 12 1017.0 1017.0 0.0
09/08:30pm 19.8 15.6 9.7 52 5.4 SE 22 30 12 16 1016.4 1016.4 0.0
09/08:00pm 19.9 15.7 9.8 52 5.4 SE 22 32 12 17 1015.8 1015.8 0.0
09/07:30pm 20.7 16.3 10.5 52 5.5 SE 24 35 13 19 1014.9 1014.9 0.0
09/07:00pm 21.2 15.7 10.7 51 5.7 SE 30 35 16 19 1014.2 1014.2 0.0
09/06:30pm 21.7 16.4 11.1 51 5.9 ESE 30 37 16 20 1013.4 1013.4 0.0
09/06:00pm 22.2 17.0 11.6 51 5.9 ESE 30 39 16 21 1012.4 1012.4 0.0
09/05:30pm 22.9 17.7 11.6 49 6.3 ESE 30 37 16 20 1011.8 1011.8 0.0
09/05:00pm 23.2 17.6 11.6 48 6.5 ESE 32 43 17 23 1011.1 1011.1 0.0
09/04:30pm 27.0 21.2 -0.1 17 12.6 SSW 20 33 11 18 1010.7 1010.7 0.0
09/04:00pm 26.9 21.1 -0.2 17 12.6 SW 20 32 11 17 1010.4 1010.4 0.0
09/03:30pm 26.5 19.5 -0.5 17 12.4 SW 26 41 14 22 1010.2 1010.2 0.0
09/03:00pm 25.9 19.2 -1.0 17 12.2 WSW 24 39 13 21 1010.1 1010.1 0.0
09/02:40pm 26.6 19.2 -0.4 17 12.5 SW 28 46 15 25 1010.1 1010.1 0.0
09/02:30pm 25.8 17.6 -1.1 17 12.2 SW 32 46 17 25 1010.1 1010.1 0.0
09/02:22pm 26.0 18.2 -0.9 17 12.3 SW 30 46 16 25 1010.3 1010.3 0.0
09/02:00pm 25.7 18.8 0.4 19 11.8 SW 26 39 14 21 1010.1 1010.1 0.0
09/01:41pm 25.6 18.5 -1.2 17 12.1 WSW 26 54 14 29 1010.1 1010.1 0.0
09/01:30pm 25.3 18.3 -0.7 18 11.8 W 26 35 14 19 1010.1 1010.1 0.0
09/01:00pm 25.0 17.9 1.2 21 11.2 WSW 28 43 15 23 1010.0 1010.0 0.0
09/12:43pm 24.9 17.8 1.1 21 11.2 WSW 28 50 15 27 1009.9 1009.9 0.0
09/12:30pm 23.9 16.5 2.1 24 10.3 WSW 30 41 16 22 1010.0 1010.0 0.0
09/12:00pm 23.9 16.5 3.8 27 9.9 WSW 32 50 17 27 1010.0 1010.0 0.0
09/11:30am 23.5 16.1 4.9 30 9.3 WSW 33 54 18 29 1010.0 1010.0 0.0
09/11:00am 22.5 13.9 4.5 31 8.9 WSW 39 57 21 31 1009.7 1009.7 0.0
09/10:30am 22.5 15.3 5.0 32 8.7 WSW 32 54 17 29 1009.3 1009.3 0.0
09/10:00am 21.8 13.2 4.8 33 8.4 W 39 57 21 31 1008.9 1008.9 0.0
09/09:30am 21.1 13.6 4.6 34 8.0 WSW 33 56 18 30 1008.8 1008.8 0.0
09/09:20am 21.3 13.9 4.8 34 8.1 WSW 33 52 18 28 1009.0 1009.0 0.0
09/09:00am 20.6 12.4 4.6 35 7.8 WSW 37 50 20 27 1009.1 1009.1 0.0
09/08:32am 19.7 12.4 5.4 39 7.0 WSW 33 52 18 28 1008.9 1008.9 0.0
09/08:30am 19.7 12.0 5.4 39 7.0 WSW 35 52 19 28 1008.9 1008.9 0.0
09/08:00am 19.4 11.3 5.1 39 7.0 WSW 37 57 20 31 1008.4 1008.4 0.0
09/07:34am 19.2 11.9 5.6 41 6.7 WSW 33 52 18 28 1008.2 1008.2 0.0
09/07:30am 18.9 11.2 5.4 41 6.6 WSW 35 52 19 28 1008.3 1008.3 0.0
09/07:12am 19.0 12.7 5.5 41 6.6 WSW 28 48 15 26 1008.1 1008.1 0.0
09/07:00am 18.9 13.7 5.4 41 6.6 WSW 22 35 12 19 1007.8 1007.8 0.0
09/06:30am 18.4 13.9 6.3 45 6.0 WSW 19 24 10 13 1006.9 1006.9 0.0
09/06:00am 18.1 14.0 6.3 46 5.8 SW 17 24 9 13 1006.6 1006.6 0.0
09/05:30am 18.4 14.1 6.9 47 5.8 SW 19 24 10 13 1006.0 1006.0 0.0
09/05:00am 18.7 13.8 6.9 46 5.9 WSW 22 32 12 17 1005.1 1005.1 0.0
09/04:30am 18.2 15.6 7.6 50 5.4 WSW 11 17 6 9 1004.7 1004.7 0.0
09/04:00am 18.9 15.9 7.7 48 5.7 WSW 13 26 7 14 1004.4 1004.4 0.0
09/03:30am 19.3 15.1 7.4 46 6.1 WSW 19 30 10 16 1004.0 1004.0 0.0
09/03:00am 20.0 14.8 7.4 44 6.5 WSW 24 33 13 18 1003.6 1003.6 0.0
09/02:30am 20.2 15.9 6.9 42 6.7 WSW 19 46 10 25 1003.2 1003.2 0.0
09/02:00am 20.6 15.5 6.2 39 7.3 WSW 22 33 12 18 1002.4 1002.4 0.0
09/01:30am 20.9 15.4 6.1 38 7.4 W 24 35 13 19 1002.2 1002.2 0.0
09/01:00am 21.5 15.6 7.3 40 7.3 WSW 28 50 15 27 1001.3 1001.3 0.0
09/12:30am 22.5 16.6 11.3 49 6.2 WSW 33 52 18 28 1000.5 1000.5 0.0
09/12:22am 22.9 17.1 12.8 53 5.8 WSW 35 54 19 29 1000.2 1000.2 0.0
09/12:11am 24.6 21.2 13.8 51 6.3 WSW 24 54 13 29 999.8 999.8 0.0
09/12:00am 26.4 24.6 14.5 48 7.2 WSW 17 22 9 12 998.7 998.7 0.0
 
Date/Time
EDT
Temp
°C
App
Temp
°C
Dew
Point
°C
Rel
Hum
%
Delta-T
°C
Wind Press
QNH
hPa
Press
MSL
hPa
Rain since
9am
mm
Dir  Spd
km/h
Gust
km/h
Spd
kts
Gust
kts
08/11:30pm 26.2 24.3 14.3 48 7.1 WNW 17 24 9 13 998.8 998.8 0.0
08/11:00pm 26.6 25.3 14.7 48 7.2 WNW 15 22 8 12 998.6 998.6 0.0
08/10:30pm 27.1 24.7 14.5 46 7.6 WSW 20 32 11 17 999.4 999.4 0.0
08/10:00pm 27.8 24.0 13.7 42 8.4 WSW 26 35 14 19 999.2 999.2 0.0
08/09:30pm 28.2 25.8 14.4 42 8.3 SW 20 30 11 16 998.9 998.9 0.0
08/09:00pm 28.9 25.9 15.8 45 8.1 SW 26 39 14 21 998.3 998.3 0.0
08/08:47pm 29.5 28.9 20.4 58 6.0 WSW 24 50 13 27 997.6 997.6 0.0
08/08:41pm 28.7 31.2 21.0 63 5.1 N 9 43 5 23 997.6 997.6 0.0
08/08:30pm 28.7 31.4 20.7 62 5.3 NNE 7 15 4 8 996.0 996.0 0.0
08/08:00pm 28.9 29.7 20.6 61 5.5 NE 17 24 9 13 995.6 995.6 0.0
08/07:30pm 29.5 30.2 20.4 58 6.0 NE 17 24 9 13 995.6 995.6 0.0
08/07:00pm 30.8 30.6 19.8 52 7.3 NE 20 30 11 16 995.8 995.8 0.0
08/06:30pm 30.6 29.9 19.6 51 7.2 NE 22 32 12 17 995.9 995.9 0.0
08/06:00pm 30.7 30.3 19.4 51 7.4 NE 20 30 11 16 996.0 996.0 0.0
08/05:30pm 31.0 30.0 19.7 51 7.4 NE 24 35 13 19 996.0 996.0 0.0
08/05:00pm 30.7 29.5 20.0 52 7.1 NE 26 37 14 20 996.3 996.3 0.0
08/04:30pm 31.4 30.4 19.7 49 7.7 ENE 24 33 13 18 996.7 996.7 0.0
08/04:00pm 31.1 30.3 20.1 52 7.3 NE 24 33 13 18 997.3 997.3 0.0
08/03:30pm 29.7 28.6 19.4 54 6.7 E 24 32 13 17 998.1 998.1 0.0
08/03:00pm 30.1 29.0 19.5 53 7.0 E 24 32 13 17 998.9 998.9 0.0
08/02:30pm 29.3 27.3 18.4 51 7.0 ENE 26 35 14 19 999.6 999.6 0.0
08/02:00pm 30.8 30.0 19.2 50 7.6 ENE 22 32 12 17 1000.3 1000.3 0.0
08/01:30pm 31.2 30.0 19.2 48 7.8 E 24 32 13 17 1001.0 1001.0 0.0
08/01:00pm 31.6 31.9 19.6 49 7.9 ENE 17 28 9 15 1001.9 1001.9 0.0
08/12:30pm 30.5 29.8 18.2 47 7.9 ENE 19 28 10 15 1002.9 1002.9 0.0
08/12:00pm 29.6 28.9 17.4 47 7.7 ENE 17 28 9 15 1003.7 1003.7 0.0
08/11:30am 28.5 28.1 17.1 50 7.2 NNE 15 24 8 13 1004.5 1004.5 0.0
08/11:00am 27.5 27.7 16.8 52 6.7 NNE 11 17 6 9 1005.4 1005.4 0.0
08/10:30am 26.8 27.2 17.3 56 5.9 NE 11 48 6 26 1006.2 1006.2 0.0
08/10:00am 25.7 25.7 16.3 56 5.8 NE 11 19 6 10 1006.9 1006.9 0.0
08/09:30am 24.1 24.8 16.1 61 4.9 NW 7 13 4 7 1007.7 1007.7 0.0
08/09:00am 24.1 25.1 16.9 64 4.4 NW 7 13 4 7 1008.5 1008.5 0.0
08/08:30am 22.3 22.9 15.9 67 3.9 NNE 7 11 4 6 1009.2 1009.2 0.0
08/08:00am 21.8 22.2 16.3 71 3.3 N 9 13 5 7 1009.5 1009.5 0.0
08/07:30am 21.2 21.2 16.2 73 3.0 N 11 15 6 8 1009.7 1009.7 0.0
08/07:00am 20.5 20.5 16.3 77 2.5 NNE 11 17 6 9 1010.0 1010.0 0.0
08/06:30am 19.9 19.9 16.2 79 2.2 NNE 11 15 6 8 1009.9 1009.9 0.0
08/06:00am 19.3 21.0 16.2 82 1.9 N 2 7 1 4 1010.2 1010.2 0.0
08/05:30am 19.5 19.9 16.2 81 2.0 N 9 11 5 6 1010.1 1010.1 0.0
08/05:00am 19.7 20.1 16.2 80 2.1 NNE 9 11 5 6 1010.3 1010.3 0.0
08/04:30am 20.3 20.7 16.3 78 2.4 N 9 15 5 8 1010.6 1010.6 0.0
08/04:00am 20.4 20.8 16.2 77 2.5 NNE 9 15 5 8 1010.8 1010.8 0.0
08/03:30am 20.4 21.2 16.4 78 2.4 NNW 7 11 4 6 1010.9 1010.9 0.0
08/03:00am 20.6 20.3 16.4 77 2.5 N 13 20 7 11 1011.5 1011.5 0.0
08/02:30am 20.6 21.1 16.6 78 2.4 N 9 13 5 7 1012.0 1012.0 0.0
08/02:00am 20.6 20.7 16.4 77 2.5 N 11 17 6 9 1012.4 1012.4 0.0

Other Formats:

Comma delimited format used in spreadsheet applications
http://www.bom.gov.au/fwo/IDN60801/IDN60801.94765.axf

JavaScript Object Notation format (JSON) in row-major order
http://www.bom.gov.au/fwo/IDN60801/IDN60801.94765.json